createdAt,value
2023-06-05T00:02:09.023Z,90.69
2023-06-05T00:04:44.516Z,89.76
2023-06-05T00:07:15.981Z,90.44
2023-06-05T00:09:48.270Z,90.65
2023-06-05T00:12:19.189Z,90.05
2023-06-05T00:14:47.438Z,89.19
2023-06-05T00:17:18.703Z,89.76
2023-06-05T00:19:53.015Z,89.90
2023-06-05T00:22:24.372Z,91.08
2023-06-05T00:24:54.933Z,92.52
2023-06-05T00:27:25.354Z,93.63
2023-06-05T00:29:57.148Z,92.20
2023-06-05T00:32:25.992Z,91.46
2023-06-05T00:34:59.739Z,91.80
2023-06-05T00:37:28.188Z,91.25
2023-06-05T00:40:00.273Z,91.11
2023-06-05T00:42:31.921Z,90.52
2023-06-05T00:45:01.103Z,89.35
2023-06-05T00:47:30.125Z,89.76
2023-06-05T00:50:03.798Z,89.80
2023-06-05T00:52:34.287Z,90.29
2023-06-05T00:55:07.806Z,91.62
2023-06-05T00:57:44.463Z,92.38
2023-06-05T01:00:15.167Z,91.60
2023-06-05T01:02:52.115Z,92.60
2023-06-05T01:05:28.969Z,91.26
2023-06-05T01:07:58.728Z,89.66
2023-06-05T01:10:28.396Z,88.59
2023-06-05T01:13:05.884Z,88.62
2023-06-05T01:15:37.401Z,88.24
2023-06-05T01:18:16.481Z,88.30
2023-06-05T01:20:51.485Z,87.75
2023-06-05T01:23:28.784Z,87.77
2023-06-05T01:26:01.770Z,87.70
2023-06-05T01:28:35.318Z,87.33
2023-06-05T01:31:08.914Z,87.30
2023-06-05T01:33:43.294Z,86.66
2023-06-05T01:36:24.613Z,86.20
2023-06-05T01:39:01.742Z,86.97
2023-06-05T01:41:38.524Z,87.74
2023-06-05T01:44:09.373Z,87.89
2023-06-05T01:46:41.181Z,86.52
2023-06-05T01:49:11.432Z,87.75
2023-06-05T01:51:43.091Z,86.53
2023-06-05T01:54:19.027Z,87.81
2023-06-05T01:56:56.360Z,87.34
2023-06-05T01:59:26.749Z,87.33
2023-06-05T02:02:01.269Z,86.90
2023-06-05T02:04:32.179Z,87.30
2023-06-05T02:07:07.593Z,89.31
2023-06-05T02:09:48.974Z,88.15
2023-06-05T02:12:18.294Z,88.98
2023-06-05T02:14:55.614Z,88.55
2023-06-05T02:17:30.217Z,89.77
2023-06-05T02:19:59.093Z,89.17
2023-06-05T02:22:28.696Z,88.89
2023-06-05T02:25:00.216Z,89.32
2023-06-05T02:27:29.722Z,91.69
2023-06-05T02:30:02.462Z,91.68
2023-06-05T02:32:41.022Z,91.42
2023-06-05T02:35:16.981Z,91.20
2023-06-05T02:37:49.392Z,90.44
2023-06-05T02:40:22.727Z,88.88
2023-06-05T02:43:00.841Z,88.88
2023-06-05T02:45:31.580Z,87.92
2023-06-05T02:48:14.486Z,86.92
2023-06-05T02:50:44.377Z,86.80
2023-06-05T02:53:16.938Z,89.34
2023-06-05T02:55:50.348Z,88.11
2023-06-05T02:58:23.031Z,88.23
2023-06-05T03:01:02.940Z,87.81
2023-06-05T03:03:42.861Z,86.56
2023-06-05T03:06:15.634Z,88.30
2023-06-05T03:08:59.052Z,88.32
2023-06-05T03:11:37.893Z,89.15
2023-06-05T03:14:16.629Z,88.24
2023-06-05T03:16:49.802Z,88.75
2023-06-05T03:19:22.670Z,86.72
2023-06-05T03:21:55.667Z,86.52
2023-06-05T03:24:29.115Z,85.44
2023-06-05T03:27:16.786Z,84.92
2023-06-05T03:29:54.522Z,83.93
2023-06-05T03:32:23.208Z,83.85
2023-06-05T03:34:59.155Z,85.11
2023-06-05T03:37:28.815Z,84.41
2023-06-05T03:39:59.372Z,84.77
2023-06-05T03:42:33.823Z,85.56
2023-06-05T03:45:05.487Z,86.19
2023-06-05T03:47:35.859Z,87.42
2023-06-05T03:50:16.577Z,88.30
2023-06-05T03:52:53.989Z,87.82
2023-06-05T03:55:26.370Z,87.60
2023-06-05T03:58:03.875Z,86.79
2023-06-05T04:00:34.517Z,87.66
2023-06-05T04:03:04.794Z,87.62
2023-06-05T04:05:34.610Z,86.85
2023-06-05T04:08:05.195Z,86.87
2023-06-05T04:10:34.455Z,86.27
2023-06-05T04:13:05.359Z,87.63
2023-06-05T04:15:38.034Z,87.40
2023-06-05T04:18:14.588Z,86.85
2023-06-05T04:20:44.421Z,86.72
2023-06-05T04:23:13.791Z,86.19
2023-06-05T04:25:47.247Z,87.16
2023-06-05T04:28:35.791Z,85.98
2023-06-05T04:31:07.435Z,85.84
2023-06-05T04:33:36.936Z,87.97
2023-06-05T04:36:06.478Z,87.50
2023-06-05T04:38:36.133Z,86.53
2023-06-05T04:41:04.224Z,85.51
2023-06-05T04:43:37.190Z,86.07
2023-06-05T04:46:11.461Z,86.11
2023-06-05T04:48:41.805Z,85.76
2023-06-05T04:51:13.976Z,85.37
2023-06-05T04:53:51.149Z,86.16
2023-06-05T04:56:33.402Z,85.90
2023-06-05T04:59:16.501Z,86.51
2023-06-05T05:01:53.928Z,85.26
2023-06-05T05:04:26.133Z,85.05
2023-06-05T05:07:02.180Z,85.91
2023-06-05T05:09:34.528Z,84.41
2023-06-05T05:12:11.746Z,83.90
2023-06-05T05:14:53.276Z,83.11
2023-06-05T05:17:24.387Z,83.21
2023-06-05T05:19:53.849Z,83.78
2023-06-05T05:22:25.944Z,83.99
2023-06-05T05:24:56.767Z,83.95
2023-06-05T05:27:31.647Z,83.33
2023-06-05T05:30:06.917Z,83.03
2023-06-05T05:32:44.414Z,83.15
2023-06-05T05:35:16.246Z,82.22
2023-06-05T05:37:46.625Z,81.13
2023-06-05T05:40:24.722Z,80.36
2023-06-05T05:43:01.137Z,80.12
2023-06-05T05:45:33.155Z,79.75
2023-06-05T05:48:05.026Z,79.41
2023-06-05T05:50:36.180Z,78.86
2023-06-05T05:53:08.045Z,78.19
2023-06-05T05:55:38.987Z,78.34
2023-06-05T05:58:08.207Z,78.13
2023-06-05T06:00:40.227Z,77.54
2023-06-05T06:03:10.843Z,78.14
2023-06-05T06:05:42.128Z,77.88
2023-06-05T06:08:11.489Z,77.67
2023-06-05T06:10:42.670Z,78.13
2023-06-05T06:13:15.652Z,77.73
2023-06-05T06:15:55.113Z,77.77
2023-06-05T06:18:26.685Z,78.17
2023-06-05T06:20:58.900Z,78.80
2023-06-05T06:23:27.451Z,78.68
2023-06-05T06:25:59.115Z,78.22
2023-06-05T06:28:28.421Z,79.01
2023-06-05T06:31:04.123Z,79.20
2023-06-05T06:33:42.695Z,79.55
2023-06-05T06:36:13.496Z,79.88
2023-06-05T06:38:48.404Z,81.44
2023-06-05T06:41:18.539Z,80.13
2023-06-05T06:43:51.909Z,80.05
2023-06-05T06:46:26.920Z,80.15
2023-06-05T06:49:04.459Z,80.06
2023-06-05T06:51:36.321Z,80.59
2023-06-05T06:54:10.525Z,80.88
2023-06-05T06:56:39.860Z,80.80
2023-06-05T06:59:23.935Z,79.92
2023-06-05T07:02:15.925Z,79.38
2023-06-05T07:04:51.928Z,79.47
2023-06-05T07:07:22.461Z,79.12
2023-06-05T07:09:53.253Z,78.24
2023-06-05T07:12:23.901Z,76.75
2023-06-05T07:14:55.856Z,76.29
2023-06-05T07:17:34.061Z,75.99
2023-06-05T07:20:10.982Z,75.73
2023-06-05T07:22:42.149Z,75.24
2023-06-05T07:25:14.622Z,74.99
2023-06-05T07:27:48.099Z,74.81
2023-06-05T07:30:20.977Z,74.82
2023-06-05T07:32:55.466Z,74.19
2023-06-05T07:35:26.266Z,74.48
2023-06-05T07:37:56.728Z,74.69
2023-06-05T07:40:29.682Z,73.87
2023-06-05T07:43:06.438Z,73.84
2023-06-05T07:45:40.644Z,74.46
2023-06-05T07:48:25.637Z,74.50
2023-06-05T07:50:54.912Z,74.69
2023-06-05T07:53:23.342Z,74.93
2023-06-05T07:55:54.301Z,74.08
2023-06-05T07:58:28.779Z,73.77
2023-06-05T08:01:00.490Z,73.15
2023-06-05T08:03:39.158Z,72.76
2023-06-05T08:06:09.164Z,71.58
2023-06-05T08:08:39.387Z,71.72
2023-06-05T08:11:19.377Z,71.74
2023-06-05T08:13:50.175Z,72.36
2023-06-05T08:16:21.982Z,71.30
2023-06-05T08:18:54.162Z,71.88
2023-06-05T08:21:22.275Z,72.03
2023-06-05T08:23:52.766Z,70.85
2023-06-05T08:26:21.760Z,71.31
2023-06-05T08:28:59.078Z,70.64
2023-06-05T08:31:29.761Z,71.12
2023-06-05T08:34:02.728Z,70.49
2023-06-05T08:36:34.074Z,70.34
2023-06-05T08:39:13.027Z,69.98
2023-06-05T08:41:47.308Z,69.36
2023-06-05T08:44:24.565Z,69.35
2023-06-05T08:47:02.812Z,69.09
2023-06-05T08:49:37.833Z,69.54
2023-06-05T08:52:12.258Z,69.61
2023-06-05T08:54:42.228Z,69.90
2023-06-05T08:57:12.344Z,68.82
2023-06-05T08:59:50.183Z,68.50
2023-06-05T09:02:19.337Z,66.96
2023-06-05T09:05:02.412Z,65.05
2023-06-05T09:07:32.370Z,65.20
2023-06-05T09:10:00.721Z,64.00
2023-06-05T09:12:30.308Z,62.39
2023-06-05T09:14:59.521Z,62.63
2023-06-05T09:17:33.501Z,61.08
2023-06-05T09:20:08.020Z,60.78
2023-06-05T09:22:41.797Z,60.23
2023-06-05T09:25:11.467Z,60.19
2023-06-05T09:27:42.437Z,61.19
2023-06-05T09:30:13.609Z,60.77
2023-06-05T09:32:42.226Z,61.22
2023-06-05T09:35:22.062Z,61.23
2023-06-05T09:37:57.608Z,61.59
2023-06-05T09:40:39.951Z,60.77
2023-06-05T09:43:21.811Z,61.31
2023-06-05T09:45:59.419Z,62.23
2023-06-05T09:48:36.462Z,61.85
2023-06-05T09:51:17.891Z,62.18
2023-06-05T09:53:59.701Z,62.24
2023-06-05T09:56:42.896Z,62.73
2023-06-05T09:59:30.389Z,63.50
2023-06-05T10:02:04.976Z,62.29
2023-06-05T10:04:47.512Z,61.87
2023-06-05T10:07:20.693Z,60.88
2023-06-05T10:09:52.536Z,59.90
2023-06-05T10:12:22.593Z,59.75
2023-06-05T10:14:56.126Z,60.34
2023-06-05T10:17:28.164Z,60.54
2023-06-05T10:19:58.309Z,59.70
2023-06-05T10:22:35.061Z,59.86
2023-06-05T10:25:20.617Z,60.54
2023-06-05T10:28:01.533Z,60.92
2023-06-05T10:30:59.814Z,61.09
2023-06-05T10:33:46.965Z,61.79
2023-06-05T10:36:28.239Z,59.93
2023-06-05T10:39:03.566Z,61.23
2023-06-05T10:41:34.518Z,60.89
2023-06-05T10:44:07.496Z,61.40
2023-06-05T10:46:42.242Z,61.27
2023-06-05T10:49:21.140Z,61.41
2023-06-05T10:51:51.061Z,62.00
2023-06-05T10:54:56.634Z,60.81
2023-06-05T10:57:28.584Z,61.25
2023-06-05T11:00:13.600Z,61.79
2023-06-05T11:02:51.555Z,61.66
2023-06-05T11:05:26.516Z,61.43
2023-06-05T11:08:13.892Z,60.16
2023-06-05T11:11:13.602Z,60.44
2023-06-05T11:14:03.735Z,60.06
2023-06-05T11:16:34.503Z,60.60
2023-06-05T11:19:40.744Z,58.85
2023-06-05T11:22:12.936Z,59.49
2023-06-05T11:24:41.951Z,59.14
2023-06-05T11:27:43.756Z,59.60
2023-06-05T11:30:43.280Z,59.43
2023-06-05T11:33:17.770Z,59.34
2023-06-05T11:35:48.896Z,58.66
2023-06-05T11:38:25.043Z,59.03
2023-06-05T11:40:56.855Z,58.91
2023-06-05T11:43:35.867Z,58.84
2023-06-05T11:46:09.767Z,59.15
2023-06-05T11:48:53.171Z,59.36
2023-06-05T11:51:27.220Z,59.48
2023-06-05T11:54:00.623Z,59.97
2023-06-05T11:56:31.071Z,60.11
2023-06-05T11:59:01.859Z,60.25
2023-06-05T12:01:41.478Z,60.69
2023-06-05T12:04:10.440Z,60.72
2023-06-05T12:06:48.066Z,60.59
2023-06-05T12:09:20.019Z,60.75
2023-06-05T12:11:49.957Z,60.05
2023-06-05T12:14:38.372Z,60.31
2023-06-05T12:17:18.871Z,60.98
2023-06-05T12:19:55.057Z,60.58
2023-06-05T12:22:33.746Z,62.49
2023-06-05T12:25:21.232Z,62.05
2023-06-05T12:27:51.820Z,61.75
2023-06-05T12:30:22.813Z,61.98
2023-06-05T12:33:11.346Z,61.70
2023-06-05T12:35:42.058Z,61.91
2023-06-05T12:38:21.420Z,62.50
2023-06-05T12:41:00.843Z,62.93
2023-06-05T12:43:44.040Z,63.12
2023-06-05T12:46:19.045Z,63.71
2023-06-05T12:49:02.019Z,63.69
2023-06-05T12:51:35.905Z,64.27
2023-06-05T12:54:04.428Z,62.98
2023-06-05T12:56:36.670Z,63.52
2023-06-05T12:59:08.193Z,63.78
2023-06-05T13:01:40.684Z,63.68
2023-06-05T13:04:12.512Z,63.99
2023-06-05T13:06:43.923Z,64.01
2023-06-05T13:09:16.447Z,64.76
2023-06-05T13:11:47.735Z,64.77
2023-06-05T13:14:25.581Z,65.48
2023-06-05T13:16:58.028Z,65.33
2023-06-05T13:19:35.878Z,64.00
2023-06-05T13:22:06.713Z,63.48
2023-06-05T13:24:35.201Z,63.98
2023-06-05T13:27:12.050Z,64.55
2023-06-05T13:29:48.392Z,65.56
2023-06-05T13:32:25.060Z,65.00
2023-06-05T13:35:01.782Z,65.90
2023-06-05T13:37:38.587Z,66.01
2023-06-05T13:40:11.451Z,65.91
2023-06-05T13:42:44.095Z,66.59
2023-06-05T13:45:14.930Z,66.47
2023-06-05T13:47:51.171Z,67.11
2023-06-05T13:50:21.529Z,66.63
2023-06-05T13:52:51.834Z,66.97
2023-06-05T13:55:29.648Z,66.42
2023-06-05T13:58:01.819Z,66.05
2023-06-05T14:00:31.129Z,66.23
2023-06-05T14:03:04.035Z,65.30
2023-06-05T14:05:37.122Z,65.06
2023-06-05T14:08:08.848Z,66.41
2023-06-05T14:10:39.785Z,66.24
2023-06-05T14:13:12.047Z,67.10
2023-06-05T14:15:55.225Z,68.78
2023-06-05T14:18:26.254Z,69.44
2023-06-05T14:20:57.853Z,68.92
2023-06-05T14:23:29.262Z,70.29
2023-06-05T14:26:00.481Z,70.86
2023-06-05T14:28:31.479Z,70.97
2023-06-05T14:31:03.188Z,70.77
2023-06-05T14:33:37.397Z,71.11
2023-06-05T14:36:10.804Z,71.93
2023-06-05T14:38:44.633Z,71.18
2023-06-05T14:41:21.298Z,71.83
2023-06-05T14:44:10.398Z,72.56
2023-06-05T14:46:42.754Z,72.67
2023-06-05T14:49:19.860Z,72.11
2023-06-05T14:51:55.040Z,71.60
2023-06-05T14:54:23.096Z,70.89
2023-06-05T14:56:55.313Z,70.82
2023-06-05T14:59:26.861Z,71.25
2023-06-05T15:02:06.100Z,71.10
2023-06-05T15:04:35.736Z,71.46
2023-06-05T15:07:07.609Z,71.82
2023-06-05T15:09:37.054Z,73.02
2023-06-05T15:12:11.469Z,73.91
2023-06-05T15:14:46.152Z,77.26
2023-06-05T15:17:20.605Z,79.59
2023-06-05T15:19:49.235Z,82.26
2023-06-05T15:22:31.721Z,85.45
2023-06-05T15:25:00.499Z,88.99
2023-06-05T15:27:29.950Z,91.13
2023-06-05T15:30:00.287Z,92.30
2023-06-05T15:32:31.903Z,94.73
2023-06-05T15:35:03.312Z,97.41
2023-06-05T15:37:46.531Z,99.93
2023-06-05T15:40:30.841Z,100.00
2023-06-05T15:43:06.975Z,100.00
2023-06-05T15:45:36.199Z,100.00
2023-06-05T15:48:09.388Z,100.00
2023-06-05T15:50:41.652Z,100.00
2023-06-05T15:53:24.207Z,100.00
2023-06-05T15:56:00.498Z,100.00
2023-06-05T15:58:37.794Z,100.00
2023-06-05T16:01:11.453Z,100.00
2023-06-05T16:03:45.734Z,100.00
2023-06-05T16:06:14.705Z,100.00
2023-06-05T16:08:58.175Z,100.00
2023-06-05T16:11:28.215Z,100.00
2023-06-05T16:14:00.950Z,100.00
2023-06-05T16:16:38.745Z,100.00
2023-06-05T16:19:16.651Z,100.00
2023-06-05T16:21:45.283Z,100.00
2023-06-05T16:24:16.628Z,100.00
2023-06-05T16:26:57.664Z,100.00
2023-06-05T16:29:29.458Z,100.00
2023-06-05T16:31:57.781Z,100.00
2023-06-05T16:34:29.124Z,100.00
2023-06-05T16:36:58.562Z,100.00
2023-06-05T16:39:28.826Z,100.00
2023-06-05T16:42:03.075Z,100.00
2023-06-05T16:44:32.188Z,100.00
2023-06-05T16:47:04.894Z,100.00
2023-06-05T16:49:37.459Z,100.00
2023-06-05T16:52:11.777Z,100.00
2023-06-05T16:54:52.060Z,100.00
2023-06-05T16:57:32.114Z,100.00
2023-06-05T17:00:13.574Z,100.00
2023-06-05T17:02:57.422Z,100.00
2023-06-05T17:05:30.396Z,100.00
2023-06-05T17:08:06.163Z,100.00
2023-06-05T17:10:37.281Z,100.00
2023-06-05T17:13:09.493Z,100.00
2023-06-05T17:15:49.352Z,100.00
2023-06-05T17:18:21.619Z,100.00
2023-06-05T17:21:01.324Z,100.00
2023-06-05T17:23:36.297Z,100.00
2023-06-05T17:26:27.920Z,100.00
2023-06-05T17:29:00.042Z,100.00
2023-06-05T17:31:31.203Z,100.00
2023-06-05T17:34:06.726Z,100.00
2023-06-05T17:36:44.916Z,100.00
2023-06-05T17:39:17.047Z,100.00
2023-06-05T17:41:52.461Z,100.00
2023-06-05T17:44:24.220Z,100.00
2023-06-05T17:46:56.212Z,100.00
2023-06-05T17:49:31.535Z,100.00
2023-06-05T17:52:06.754Z,100.00
2023-06-05T17:54:36.972Z,100.00
2023-06-05T17:57:22.219Z,100.00
2023-06-05T18:00:01.502Z,100.00
2023-06-05T18:02:32.792Z,100.00
2023-06-05T18:05:07.968Z,100.00
2023-06-05T18:07:47.003Z,100.00
2023-06-05T18:10:17.722Z,100.00
2023-06-05T18:12:55.872Z,100.00
2023-06-05T18:15:26.508Z,100.00
2023-06-05T18:18:02.354Z,100.00
2023-06-05T18:20:39.903Z,100.00
2023-06-05T18:23:10.486Z,100.00
2023-06-05T18:25:40.086Z,100.00
2023-06-05T18:28:11.895Z,100.00
2023-06-05T18:30:49.166Z,100.00
2023-06-05T18:33:28.454Z,100.00
2023-06-05T18:35:59.438Z,100.00
2023-06-05T18:38:34.244Z,100.00
2023-06-05T18:41:11.795Z,100.00
2023-06-05T18:44:00.318Z,100.00
2023-06-05T18:46:40.630Z,100.00
2023-06-05T18:49:14.400Z,100.00
2023-06-05T18:51:57.335Z,100.00
2023-06-05T18:54:30.869Z,100.00
2023-06-05T18:57:00.365Z,100.00
2023-06-05T18:59:32.054Z,100.00
2023-06-05T19:02:03.569Z,100.00
2023-06-05T19:04:33.714Z,100.00
2023-06-05T19:07:06.532Z,100.00
2023-06-05T19:09:41.052Z,100.00
2023-06-05T19:12:17.017Z,100.00
2023-06-05T19:15:01.781Z,100.00
2023-06-05T19:17:45.922Z,100.00
2023-06-05T19:20:18.030Z,100.00
2023-06-05T19:22:47.416Z,100.00
2023-06-05T19:25:20.900Z,100.00
2023-06-05T19:27:59.486Z,100.00
2023-06-05T19:30:31.387Z,100.00
2023-06-05T19:33:01.921Z,100.00
2023-06-05T19:35:32.109Z,100.00
2023-06-05T19:38:09.404Z,100.00
2023-06-05T19:40:47.312Z,100.00
2023-06-05T19:43:19.325Z,100.00
2023-06-05T19:45:52.174Z,100.00
2023-06-05T19:48:27.097Z,100.00
2023-06-05T19:50:59.576Z,100.00
2023-06-05T19:53:36.217Z,100.00
2023-06-05T19:56:09.279Z,100.00
2023-06-05T19:58:42.876Z,100.00
2023-06-05T20:01:20.897Z,100.00
2023-06-05T20:03:56.800Z,100.00
2023-06-05T20:06:27.438Z,100.00
2023-06-05T20:08:58.134Z,100.00
2023-06-05T20:11:28.681Z,100.00
2023-06-05T20:14:01.343Z,100.00
2023-06-05T20:16:43.323Z,100.00
2023-06-05T20:22:11.913Z,100.00
2023-06-05T20:24:50.611Z,100.00
2023-06-05T20:27:29.959Z,100.00
2023-06-05T20:30:02.244Z,100.00
2023-06-05T20:32:40.831Z,100.00
2023-06-05T20:35:25.079Z,100.00
2023-06-05T20:37:59.159Z,100.00
2023-06-05T20:40:31.621Z,100.00
2023-06-05T20:43:08.871Z,100.00
2023-06-05T20:45:53.131Z,100.00
2023-06-05T20:48:27.190Z,100.00
2023-06-05T20:50:59.730Z,100.00
2023-06-05T20:53:31.800Z,100.00
2023-06-05T20:56:02.084Z,100.00
2023-06-05T20:58:33.249Z,100.00
2023-06-05T21:01:04.911Z,100.00
2023-06-05T21:03:37.325Z,100.00
2023-06-05T21:06:13.331Z,100.00
2023-06-05T21:08:55.730Z,100.00
2023-06-05T21:11:27.680Z,100.00
2023-06-05T21:13:59.457Z,100.00
2023-06-05T21:16:31.185Z,100.00
2023-06-05T21:19:05.029Z,100.00
2023-06-05T21:21:34.321Z,100.00
2023-06-05T21:24:05.266Z,100.00
2023-06-05T21:26:36.409Z,100.00
2023-06-05T21:29:16.171Z,100.00
2023-06-05T21:31:51.904Z,100.00
2023-06-05T21:34:22.798Z,100.00
2023-06-05T21:36:53.478Z,100.00
2023-06-05T21:39:22.229Z,100.00
2023-06-05T21:42:02.062Z,100.00
2023-06-05T21:44:33.032Z,100.00
2023-06-05T21:47:02.307Z,100.00
2023-06-05T21:49:34.774Z,100.00
2023-06-05T21:52:04.109Z,100.00
2023-06-05T21:54:32.860Z,100.00
2023-06-05T21:57:06.713Z,100.00
2023-06-05T21:59:43.678Z,100.00
2023-06-05T22:02:21.289Z,100.00
2023-06-05T22:04:55.960Z,100.00
2023-06-05T22:07:25.545Z,100.00
2023-06-05T22:09:53.957Z,100.00
2023-06-05T22:12:27.886Z,100.00
2023-06-05T22:15:05.245Z,100.00
2023-06-05T22:17:47.645Z,100.00
2023-06-05T22:20:20.858Z,100.00
2023-06-05T22:22:50.976Z,100.00
2023-06-05T22:25:19.917Z,100.00
2023-06-05T22:27:48.699Z,100.00
2023-06-05T22:30:21.586Z,100.00
2023-06-05T22:32:53.910Z,100.00
2023-06-05T22:35:28.074Z,100.00
2023-06-05T22:37:56.957Z,100.00
2023-06-05T22:40:40.963Z,100.00
2023-06-05T22:43:17.233Z,100.00
2023-06-05T22:45:49.950Z,100.00
2023-06-05T22:48:23.176Z,100.00
2023-06-05T22:50:58.010Z,100.00
2023-06-05T22:53:29.801Z,100.00
2023-06-05T22:55:58.920Z,100.00
2023-06-05T22:58:30.406Z,100.00
2023-06-05T23:01:02.217Z,100.00
2023-06-05T23:03:40.322Z,100.00
2023-06-05T23:06:12.066Z,100.00
2023-06-05T23:08:48.092Z,100.00
2023-06-05T23:11:20.828Z,100.00
2023-06-05T23:13:54.511Z,100.00
2023-06-05T23:16:26.000Z,100.00
2023-06-05T23:18:58.829Z,100.00
2023-06-05T23:21:29.840Z,100.00
2023-06-05T23:23:59.445Z,100.00
2023-06-05T23:26:28.289Z,100.00
2023-06-05T23:29:00.030Z,100.00
2023-06-05T23:31:31.177Z,100.00
2023-06-05T23:34:03.076Z,100.00
2023-06-05T23:36:42.980Z,100.00
2023-06-05T23:39:17.965Z,100.00
2023-06-05T23:42:01.416Z,100.00
2023-06-05T23:44:31.214Z,100.00
2023-06-05T23:47:00.097Z,100.00
2023-06-05T23:49:30.096Z,100.00
2023-06-05T23:52:01.270Z,100.00
2023-06-05T23:54:32.096Z,100.00
2023-06-05T23:57:03.937Z,100.00
2023-06-05T23:59:34.985Z,100.00
